Time;durP1;ratioP1;P1;durP2;ratioP2;P2;SDS_P1;SDS_P2;PMS_P1;PMS_P2;Temp;Humidity;BMP_temperature;BMP_pressure;BME280_temperature;BME280_humidity;BME280_pressure;Samples;Min_cycle;Max_cycle;Signal;HPM_P1;HPM_P2
2022/02/24 00:00:41;;;;;;;;;;;24.20;45.20;;;;;;1558802;76;722;-72
2022/02/24 00:02:44;;;;;;;;;;;24.20;45.20;;;;;;1558662;76;1169;-71
2022/02/24 00:04:46;;;;;;;;;;;24.30;45.30;;;;;;1556381;76;719;-73
2022/02/24 00:06:47;;;;;;;;;;;24.30;45.30;;;;;;1557726;74;722;-73
2022/02/24 00:08:49;;;;;;;;;;;24.20;45.20;;;;;;1560816;76;1929;-72
2022/02/24 00:10:51;;;;;;;;;;;24.20;45.20;;;;;;1560822;75;734;-72
2022/02/24 00:12:53;;;;;;;;;;;24.20;45.20;;;;;;1560835;76;1134;-70
2022/02/24 00:14:56;;;;;;;;;;;24.30;45.40;;;;;;1560707;74;700;-71
2022/02/24 00:16:58;;;;;;;;;;;24.30;45.40;;;;;;1560701;76;685;-71
2022/02/24 00:19:00;;;;;;;;;;;24.20;45.20;;;;;;1549110;76;746;-72
2022/02/24 00:21:02;;;;;;;;;;;24.20;45.20;;;;;;1558920;76;761;-71
2022/02/24 00:23:04;;;;;;;;;;;24.20;45.20;;;;;;1560901;76;1143;-72
2022/02/24 00:25:06;;;;;;;;;;;24.20;45.20;;;;;;1560851;76;719;-70
2022/02/24 00:27:08;;;;;;;;;;;24.20;45.20;;;;;;1560795;74;1934;-73
2022/02/24 00:29:10;;;;;;;;;;;24.20;45.30;;;;;;1560868;76;799;-73
2022/02/24 00:31:12;;;;;;;;;;;24.30;45.40;;;;;;1560889;76;727;-73
2022/02/24 00:33:14;;;;;;;;;;;24.20;45.30;;;;;;1560773;76;1131;-73
2022/02/24 00:35:16;;;;;;;;;;;24.20;45.30;;;;;;1560648;76;650;-72
2022/02/24 00:37:18;;;;;;;;;;;24.20;45.30;;;;;;1560736;75;828;-72
2022/02/24 00:39:20;;;;;;;;;;;24.20;45.30;;;;;;1560914;76;725;-73
2022/02/24 00:41:22;;;;;;;;;;;24.30;45.50;;;;;;1560787;76;714;-71
2022/02/24 00:43:24;;;;;;;;;;;24.20;45.50;;;;;;1560742;76;1190;-69
2022/02/24 00:45:26;;;;;;;;;;;24.20;45.40;;;;;;1560875;74;738;-71
2022/02/24 00:47:27;;;;;;;;;;;24.20;45.40;;;;;;1560844;76;1949;-72
2022/02/24 00:49:29;;;;;;;;;;;24.20;45.40;;;;;;1560625;76;681;-71
2022/02/24 00:51:31;;;;;;;;;;;24.20;45.40;;;;;;1560875;76;742;-71
2022/02/24 00:53:33;;;;;;;;;;;24.20;45.40;;;;;;1560764;76;1154;-73
2022/02/24 00:55:35;;;;;;;;;;;24.20;45.30;;;;;;1550634;76;743;-71
2022/02/24 00:57:37;;;;;;;;;;;24.20;45.30;;;;;;1533438;76;739;-71
2022/02/24 00:59:39;;;;;;;;;;;24.20;45.40;;;;;;1558102;74;748;-70
2022/02/24 01:01:42;;;;;;;;;;;24.20;45.40;;;;;;1560869;76;728;-71
2022/02/24 01:03:44;;;;;;;;;;;24.20;45.40;;;;;;1537831;76;1155;-72
2022/02/24 01:05:46;;;;;;;;;;;24.20;45.40;;;;;;1533342;76;754;-72
2022/02/24 01:07:48;;;;;;;;;;;24.20;45.50;;;;;;1542678;76;1921;-72
2022/02/24 01:09:49;;;;;;;;;;;24.20;45.40;;;;;;1557355;76;720;-72
2022/02/24 01:11:51;;;;;;;;;;;24.20;45.50;;;;;;1539099;76;716;-72
2022/02/24 01:13:53;;;;;;;;;;;24.20;45.40;;;;;;1533431;76;1152;-72
2022/02/24 01:15:55;;;;;;;;;;;24.10;45.50;;;;;;1534511;76;658;-72
2022/02/24 01:17:57;;;;;;;;;;;24.20;45.50;;;;;;1534955;77;700;-72
2022/02/24 01:19:59;;;;;;;;;;;24.20;45.50;;;;;;1548895;74;765;-72
2022/02/24 01:22:01;;;;;;;;;;;24.10;45.50;;;;;;1560890;76;720;-72
2022/02/24 01:24:03;;;;;;;;;;;24.20;45.50;;;;;;1560967;76;1134;-72
2022/02/24 01:26:05;;;;;;;;;;;24.20;45.50;;;;;;1560848;76;723;-72
2022/02/24 01:28:07;;;;;;;;;;;24.20;45.50;;;;;;1560904;76;1946;-73
2022/02/24 01:30:09;;;;;;;;;;;24.20;45.50;;;;;;1560762;74;827;-71
2022/02/24 01:32:10;;;;;;;;;;;24.20;45.50;;;;;;1560847;76;722;-70
2022/02/24 01:34:12;;;;;;;;;;;24.20;45.50;;;;;;1540145;71;223401;-68
2022/02/24 01:36:14;;;;;;;;;;;24.10;45.50;;;;;;1535152;75;819;-69
2022/02/24 01:38:16;;;;;;;;;;;24.10;45.50;;;;;;1540126;77;773;-67
2022/02/24 01:40:18;;;;;;;;;;;24.10;45.50;;;;;;1540072;77;699;-66
2022/02/24 01:42:20;;;;;;;;;;;24.20;45.50;;;;;;1539988;77;661;-67
2022/02/24 01:44:22;;;;;;;;;;;24.20;45.60;;;;;;1529808;76;1201;-68
2022/02/24 01:46:24;;;;;;;;;;;24.20;45.60;;;;;;1503726;79;775;-68
2022/02/24 01:48:25;;;;;;;;;;;24.20;45.50;;;;;;1503923;79;1954;-66
2022/02/24 01:50:28;;;;;;;;;;;24.20;45.50;;;;;;1503777;79;761;-67
2022/02/24 01:52:30;;;;;;;;;;;24.20;45.60;;;;;;1503810;79;742;-67
2022/02/24 01:54:33;;;;;;;;;;;24.20;45.60;;;;;;1456992;81;1102;-67
2022/02/24 01:56:35;;;;;;;;;;;24.10;45.50;;;;;;1482202;80;764;-67
2022/02/24 01:58:37;;;;;;;;;;;24.10;45.50;;;;;;1482278;80;827;-68
2022/02/24 02:00:40;;;;;;;;;;;24.20;45.60;;;;;;1482986;80;750;-69
2022/02/24 02:02:42;;;;;;;;;;;24.10;45.60;;;;;;1480612;80;1134;-66
2022/02/24 02:04:44;;;;;;;;;;;24.20;45.60;;;;;;1483362;80;729;-68
2022/02/24 02:06:46;;;;;;;;;;;24.10;45.60;;;;;;1483061;80;707;-69
2022/02/24 02:08:48;;;;;;;;;;;24.10;45.50;;;;;;1477272;80;1936;-69
2022/02/24 02:10:50;;;;;;;;;;;24.10;45.60;;;;;;1495333;78;783;-69
2022/02/24 02:12:53;;;;;;;;;;;24.10;45.50;;;;;;1515350;78;1161;-70
2022/02/24 02:14:55;;;;;;;;;;;24.20;45.50;;;;;;1515325;78;778;-67
2022/02/24 02:16:58;;;;;;;;;;;24.10;45.60;;;;;;1515432;78;716;-67
2022/02/24 02:19:00;;;;;;;;;;;24.00;45.50;;;;;;1487403;78;730;-68
2022/02/24 02:21:02;;;;;;;;;;;24.10;45.60;;;;;;1480436;80;739;-69
2022/02/24 02:23:04;;;;;;;;;;;24.10;45.60;;;;;;1480465;79;1149;-67
2022/02/24 02:25:06;;;;;;;;;;;24.20;45.60;;;;;;1481351;80;776;-65
2022/02/24 02:27:08;;;;;;;;;;;24.20;45.70;;;;;;1501480;79;711;-69
2022/02/24 02:29:11;;;;;;;;;;;24.20;45.60;;;;;;1507860;77;1930;-68
2022/02/24 02:31:13;;;;;;;;;;;24.20;45.50;;;;;;1488327;78;724;-68
2022/02/24 02:33:15;;;;;;;;;;;24.10;45.60;;;;;;1502565;78;1174;-67
2022/02/24 02:35:17;;;;;;;;;;;24.00;45.50;;;;;;1501593;78;795;-67
2022/02/24 02:37:18;;;;;;;;;;;24.10;45.60;;;;;;1498019;78;797;-68
2022/02/24 02:39:20;;;;;;;;;;;24.10;45.60;;;;;;1499818;78;930;-67
2022/02/24 02:41:22;;;;;;;;;;;24.10;45.60;;;;;;1482045;80;788;-68
2022/02/24 02:43:24;;;;;;;;;;;24.00;45.50;;;;;;1513992;78;1112;-67
2022/02/24 02:45:26;;;;;;;;;;;24.20;45.60;;;;;;1515292;78;729;-67
2022/02/24 02:47:28;;;;;;;;;;;24.10;45.60;;;;;;1510922;78;722;-67
2022/02/24 02:49:30;;;;;;;;;;;24.00;45.50;;;;;;1509270;78;1953;-67
2022/02/24 02:51:32;;;;;;;;;;;24.10;45.60;;;;;;1480371;80;835;-68
2022/02/24 02:53:34;;;;;;;;;;;24.00;45.50;;;;;;1480197;79;1181;-66
2022/02/24 02:55:35;;;;;;;;;;;24.00;45.50;;;;;;1503262;78;814;-67
2022/02/24 02:57:38;;;;;;;;;;;24.00;45.50;;;;;;1515187;78;728;-67
2022/02/24 02:59:40;;;;;;;;;;;24.00;45.50;;;;;;1499185;78;698;-69
2022/02/24 03:01:42;;;;;;;;;;;24.10;45.60;;;;;;1480315;80;736;-68
2022/02/24 03:03:44;;;;;;;;;;;24.00;45.50;;;;;;1480307;80;1118;-68
2022/02/24 03:05:46;;;;;;;;;;;24.00;45.50;;;;;;1501549;78;764;-68
2022/02/24 03:07:48;;;;;;;;;;;24.00;45.50;;;;;;1494986;78;712;-68
2022/02/24 03:09:50;;;;;;;;;;;24.00;45.50;;;;;;1480230;80;1938;-68
2022/02/24 03:11:52;;;;;;;;;;;24.00;45.60;;;;;;1480872;80;787;-68
2022/02/24 03:13:53;;;;;;;;;;;24.00;45.50;;;;;;1482262;80;1182;-68
2022/02/24 03:15:55;;;;;;;;;;;24.00;45.50;;;;;;1482622;80;725;-68
2022/02/24 03:17:57;;;;;;;;;;;24.00;45.50;;;;;;1482300;79;826;-67
2022/02/24 03:19:59;;;;;;;;;;;24.00;45.60;;;;;;1481290;79;761;-68
2022/02/24 03:22:01;;;;;;;;;;;24.00;45.60;;;;;;1480476;80;781;-68
2022/02/24 03:24:03;;;;;;;;;;;24.00;45.60;;;;;;1480356;80;1149;-68
2022/02/24 03:26:05;;;;;;;;;;;24.00;45.70;;;;;;1480219;80;716;-66
2022/02/24 03:28:07;;;;;;;;;;;24.00;45.70;;;;;;1481391;80;715;-68
2022/02/24 03:30:09;;;;;;;;;;;24.00;45.70;;;;;;1483341;80;1936;-68
2022/02/24 03:32:11;;;;;;;;;;;24.00;45.70;;;;;;1483214;80;674;-68
2022/02/24 03:34:12;;;;;;;;;;;24.10;45.90;;;;;;1483519;79;1153;-69
2022/02/24 03:36:14;;;;;;;;;;;24.00;45.70;;;;;;1481554;80;721;-69
2022/02/24 03:38:16;;;;;;;;;;;24.20;45.90;;;;;;1480300;80;736;-68
2022/02/24 03:40:18;;;;;;;;;;;24.10;45.90;;;;;;1508644;78;782;-67
2022/02/24 03:42:20;;;;;;;;;;;24.20;45.90;;;;;;1515264;78;780;-67
2022/02/24 03:44:22;;;;;;;;;;;24.20;45.90;;;;;;1515374;78;1156;-66
2022/02/24 03:46:24;;;;;;;;;;;24.20;45.80;;;;;;1490476;78;720;-68
2022/02/24 03:48:26;;;;;;;;;;;24.20;45.80;;;;;;1482014;80;1959;-67
2022/02/24 03:50:27;;;;;;;;;;;24.30;45.70;;;;;;1481112;80;781;-69
2022/02/24 03:52:29;;;;;;;;;;;24.30;45.80;;;;;;1480310;80;880;-69
2022/02/24 03:54:31;;;;;;;;;;;24.40;45.70;;;;;;1480181;80;1083;-67
2022/02/24 03:56:33;;;;;;;;;;;24.40;45.70;;;;;;1479788;80;739;-67
2022/02/24 03:58:35;;;;;;;;;;;24.40;45.60;;;;;;1480312;80;784;-67
2022/02/24 04:00:37;;;;;;;;;;;24.50;45.60;;;;;;1480469;80;710;-67
2022/02/24 04:02:39;;;;;;;;;;;24.50;45.50;;;;;;1480458;80;713;-67
2022/02/24 04:04:42;;;;;;;;;;;24.50;45.50;;;;;;1481648;80;1121;-67
2022/02/24 04:06:43;;;;;;;;;;;24.50;45.50;;;;;;1483246;80;616;-68
2022/02/24 04:08:45;;;;;;;;;;;24.60;45.40;;;;;;1483594;78;1928;-68
2022/02/24 04:10:47;;;;;;;;;;;24.60;45.40;;;;;;1500917;79;728;-69
2022/02/24 04:12:49;;;;;;;;;;;24.60;45.30;;;;;;1507953;79;1152;-67
2022/02/24 04:14:51;;;;;;;;;;;24.60;45.30;;;;;;1483352;79;677;-68
2022/02/24 04:16:53;;;;;;;;;;;24.60;45.30;;;;;;1480288;80;726;-67
2022/02/24 04:18:55;;;;;;;;;;;24.60;45.30;;;;;;1480494;80;779;-67
2022/02/24 04:20:57;;;;;;;;;;;24.70;45.40;;;;;;1498116;79;757;-67
2022/02/24 04:22:58;;;;;;;;;;;24.70;45.30;;;;;;1489299;79;1143;-67
2022/02/24 04:25:00;;;;;;;;;;;24.70;45.30;;;;;;1484084;79;783;-67
2022/02/24 04:27:02;;;;;;;;;;;24.70;45.30;;;;;;1482839;79;832;-67
2022/02/24 04:29:04;;;;;;;;;;;24.70;45.20;;;;;;1485519;79;1936;-68
2022/02/24 04:31:06;;;;;;;;;;;24.70;45.20;;;;;;1501914;78;739;-69
2022/02/24 04:33:08;;;;;;;;;;;24.70;45.10;;;;;;1483203;79;1168;-69
2022/02/24 04:35:10;;;;;;;;;;;24.70;45.10;;;;;;1483225;80;802;-68
2022/02/24 04:37:12;;;;;;;;;;;24.70;45.00;;;;;;1483267;80;741;-69
2022/02/24 04:39:13;;;;;;;;;;;24.70;45.00;;;;;;1480120;79;669;-69
2022/02/24 04:41:15;;;;;;;;;;;24.70;44.90;;;;;;1483202;80;811;-68
2022/02/24 04:43:17;;;;;;;;;;;24.70;44.80;;;;;;1483118;80;1150;-69
2022/02/24 04:45:19;;;;;;;;;;;24.80;44.90;;;;;;1483326;80;708;-70
2022/02/24 04:47:21;;;;;;;;;;;24.80;44.80;;;;;;1492673;78;822;-68
2022/02/24 04:49:23;;;;;;;;;;;24.70;44.80;;;;;;1482753;80;1950;-69
2022/02/24 04:51:25;;;;;;;;;;;24.70;44.80;;;;;;1480422;80;763;-70
2022/02/24 04:53:27;;;;;;;;;;;24.80;44.80;;;;;;1480384;79;1152;-69
2022/02/24 04:55:29;;;;;;;;;;;24.80;44.80;;;;;;1480129;79;769;-69
2022/02/24 04:57:30;;;;;;;;;;;24.80;44.70;;;;;;1481445;80;753;-70
2022/02/24 04:59:32;;;;;;;;;;;24.80;44.70;;;;;;1480231;80;711;-70
2022/02/24 05:01:35;;;;;;;;;;;24.80;44.70;;;;;;1480338;80;692;-68
2022/02/24 05:03:37;;;;;;;;;;;24.70;44.80;;;;;;1480281;80;1165;-67
2022/02/24 05:05:39;;;;;;;;;;;24.80;44.70;;;;;;1480128;79;669;-66
2022/02/24 05:07:41;;;;;;;;;;;24.80;44.80;;;;;;1483031;79;689;-66
2022/02/24 05:09:43;;;;;;;;;;;24.80;44.70;;;;;;1482554;80;1934;-66
2022/02/24 05:11:45;;;;;;;;;;;24.80;44.70;;;;;;1480691;80;748;-69
2022/02/24 05:13:47;;;;;;;;;;;24.80;44.60;;;;;;1481933;79;1164;-66
2022/02/24 05:15:49;;;;;;;;;;;24.70;44.60;;;;;;1482780;80;693;-68
2022/02/24 05:17:51;;;;;;;;;;;24.80;44.60;;;;;;1482560;79;703;-66
2022/02/24 05:19:53;;;;;;;;;;;24.80;44.60;;;;;;1482205;80;792;-67
2022/02/24 05:21:55;;;;;;;;;;;24.80;44.50;;;;;;1480161;80;677;-67
2022/02/24 05:23:57;;;;;;;;;;;24.70;44.50;;;;;;1480338;80;1149;-66
2022/02/24 05:25:59;;;;;;;;;;;24.70;44.50;;;;;;1480294;80;690;-67
2022/02/24 05:28:02;;;;;;;;;;;24.70;44.70;;;;;;1480932;80;715;-67
2022/02/24 05:30:05;;;;;;;;;;;24.70;44.70;;;;;;1483136;80;1954;-67
2022/02/24 05:32:07;;;;;;;;;;;24.70;44.60;;;;;;1483132;80;744;-68
2022/02/24 05:34:08;;;;;;;;;;;24.70;44.60;;;;;;1483208;80;1074;-66
2022/02/24 05:36:10;;;;;;;;;;;24.80;44.60;;;;;;1482010;80;791;-66
2022/02/24 05:38:12;;;;;;;;;;;24.70;44.60;;;;;;1480233;80;746;-70
2022/02/24 05:40:14;;;;;;;;;;;24.80;44.50;;;;;;1507299;78;755;-66
2022/02/24 05:42:16;;;;;;;;;;;24.70;44.50;;;;;;1515242;78;808;-66
2022/02/24 05:44:18;;;;;;;;;;;24.70;44.60;;;;;;1508276;78;1167;-67
2022/02/24 05:46:20;;;;;;;;;;;24.70;44.40;;;;;;1495161;78;773;-65
2022/02/24 05:48:21;;;;;;;;;;;24.80;44.50;;;;;;1515276;78;736;-67
2022/02/24 05:50:23;;;;;;;;;;;24.80;44.50;;;;;;1495224;78;1951;-67
2022/02/24 05:52:25;;;;;;;;;;;24.90;44.50;;;;;;1483459;80;791;-63
2022/02/24 05:54:27;;;;;;;;;;;24.80;44.40;;;;;;1483266;79;1223;-69
2022/02/24 05:56:29;;;;;;;;;;;24.80;44.40;;;;;;1483365;79;724;-64
2022/02/24 05:58:31;;;;;;;;;;;24.80;44.40;;;;;;1483431;80;800;-66
2022/02/24 06:00:33;;;;;;;;;;;24.90;44.40;;;;;;1482926;80;727;-66
2022/02/24 06:02:35;;;;;;;;;;;24.80;44.40;;;;;;1483420;80;719;-65
2022/02/24 06:04:37;;;;;;;;;;;24.80;44.50;;;;;;1483179;79;1090;-64
2022/02/24 06:06:39;;;;;;;;;;;24.90;44.50;;;;;;1483586;80;724;-69
2022/02/24 06:08:41;;;;;;;;;;;24.80;44.40;;;;;;1483429;80;752;-69
2022/02/24 06:10:43;;;;;;;;;;;24.80;44.40;;;;;;1482803;80;1925;-66
2022/02/24 06:12:45;;;;;;;;;;;24.90;44.40;;;;;;1476426;79;1197;-71
2022/02/24 06:14:47;;;;;;;;;;;24.90;44.40;;;;;;1479940;80;665;-70
2022/02/24 06:16:49;;;;;;;;;;;24.80;44.40;;;;;;1479706;80;777;-72
2022/02/24 06:18:51;;;;;;;;;;;24.80;44.40;;;;;;1497205;79;757;-71
2022/02/24 06:20:52;;;;;;;;;;;24.80;44.40;;;;;;1503706;79;798;-70
2022/02/24 06:22:54;;;;;;;;;;;24.80;44.40;;;;;;1504060;79;1137;-71
2022/02/24 06:24:56;;;;;;;;;;;24.80;44.40;;;;;;1457050;80;784;-72
2022/02/24 06:26:58;;;;;;;;;;;24.90;44.50;;;;;;1483258;79;710;-71
2022/02/24 06:29:00;;;;;;;;;;;24.80;44.40;;;;;;1483239;80;679;-73
2022/02/24 06:31:02;;;;;;;;;;;24.80;44.40;;;;;;1483367;80;1938;-71
2022/02/24 06:33:04;;;;;;;;;;;24.70;44.40;;;;;;1483260;80;1188;-68
2022/02/24 06:35:06;;;;;;;;;;;24.80;44.40;;;;;;1483304;80;726;-68
2022/02/24 06:37:08;;;;;;;;;;;24.70;44.50;;;;;;1483219;79;791;-72
2022/02/24 06:39:10;;;;;;;;;;;24.80;44.50;;;;;;1482849;80;1074;-70
2022/02/24 06:41:12;;;;;;;;;;;24.80;44.50;;;;;;1482360;79;744;-70
2022/02/24 06:43:16;;;;;;;;;;;24.80;44.40;;;;;;1482198;80;1163;-71
2022/02/24 06:45:17;;;;;;;;;;;24.80;44.50;;;;;;1482264;79;2051;-73
2022/02/24 06:47:19;;;;;;;;;;;24.70;44.60;;;;;;1482108;80;691;-73
2022/02/24 06:49:21;;;;;;;;;;;24.70;44.50;;;;;;1483072;80;762;-74
2022/02/24 06:51:23;;;;;;;;;;;24.70;44.60;;;;;;1483392;79;1977;-65
2022/02/24 06:53:25;;;;;;;;;;;24.70;44.50;;;;;;1483213;80;1154;-64
2022/02/24 06:55:27;;;;;;;;;;;24.60;44.40;;;;;;1483354;80;1083;-65
2022/02/24 06:57:29;;;;;;;;;;;24.70;44.40;;;;;;1483356;80;732;-66
2022/02/24 06:59:30;;;;;;;;;;;24.60;44.30;;;;;;1481803;80;846;-66
2022/02/24 07:01:32;;;;;;;;;;;24.60;44.30;;;;;;1480404;80;883;-67
2022/02/24 07:03:34;;;;;;;;;;;24.60;44.30;;;;;;1480342;80;1145;-68
2022/02/24 07:05:36;;;;;;;;;;;24.50;44.30;;;;;;1480256;80;734;-68
2022/02/24 07:07:38;;;;;;;;;;;24.60;44.30;;;;;;1480412;80;816;-66
2022/02/24 07:09:40;;;;;;;;;;;24.50;44.40;;;;;;1481339;80;1945;-66
2022/02/24 07:11:42;;;;;;;;;;;24.50;44.30;;;;;;1482334;80;880;-66
2022/02/24 07:13:44;;;;;;;;;;;24.60;44.40;;;;;;1472111;80;1150;-67
2022/02/24 07:15:45;;;;;;;;;;;24.50;44.30;;;;;;1490779;79;818;-67
2022/02/24 07:17:47;;;;;;;;;;;24.50;44.30;;;;;;1507989;79;655;-68
2022/02/24 07:19:49;;;;;;;;;;;24.50;44.40;;;;;;1498771;79;656;-67
2022/02/24 07:21:51;;;;;;;;;;;24.50;44.30;;;;;;1479430;80;746;-73
2022/02/24 07:23:53;;;;;;;;;;;24.50;44.40;;;;;;1497399;79;1146;-72
2022/02/24 07:25:56;;;;;;;;;;;24.50;44.20;;;;;;1503800;78;787;-73
2022/02/24 07:27:58;;;;;;;;;;;24.50;43.90;;;;;;1503794;78;711;-72
2022/02/24 07:30:00;;;;;;;;;;;24.40;43.50;;;;;;1503975;79;1923;-73
2022/02/24 07:32:02;;;;;;;;;;;24.30;43.40;;;;;;1503350;78;710;-73
2022/02/24 07:34:04;;;;;;;;;;;24.40;43.10;;;;;;1503877;79;1134;-72
2022/02/24 07:36:06;;;;;;;;;;;24.30;43.00;;;;;;1503770;79;756;-73
2022/02/24 07:38:08;;;;;;;;;;;24.30;42.80;;;;;;1503536;79;788;-73
2022/02/24 07:40:11;;;;;;;;;;;24.30;42.60;;;;;;1526426;77;818;-72
2022/02/24 07:42:13;;;;;;;;;;;24.20;42.20;;;;;;1534260;77;787;-73
2022/02/24 07:44:14;;;;;;;;;;;24.30;42.30;;;;;;1534042;77;1258;-72
2022/02/24 07:46:16;;;;;;;;;;;24.20;42.00;;;;;;1522287;77;756;-72
2022/02/24 07:48:18;;;;;;;;;;;24.20;41.70;;;;;;1503672;79;746;-74
2022/02/24 07:50:20;;;;;;;;;;;24.10;41.70;;;;;;1504757;78;1933;-71
2022/02/24 07:52:22;;;;;;;;;;;24.10;41.40;;;;;;1503895;78;791;-73
2022/02/24 07:54:24;;;;;;;;;;;24.10;41.20;;;;;;1503672;79;1101;-73
2022/02/24 07:56:26;;;;;;;;;;;24.00;40.90;;;;;;1503883;79;732;-72
2022/02/24 07:58:28;;;;;;;;;;;24.10;41.00;;;;;;1503967;79;705;-72
2022/02/24 08:00:30;;;;;;;;;;;24.10;41.00;;;;;;1499365;79;727;-72
2022/02/24 08:02:32;;;;;;;;;;;24.00;40.70;;;;;;1503008;78;797;-73
2022/02/24 08:04:34;;;;;;;;;;;24.00;40.60;;;;;;1512687;78;1127;-73
2022/02/24 08:06:36;;;;;;;;;;;24.00;40.50;;;;;;1508081;78;722;-72
2022/02/24 08:08:37;;;;;;;;;;;23.90;40.40;;;;;;1510327;78;799;-72
2022/02/24 08:10:40;;;;;;;;;;;23.90;40.30;;;;;;1507607;78;1944;-75
2022/02/24 08:12:44;;;;;;;;;;;23.90;40.20;;;;;;1528153;78;773;-74
2022/02/24 08:14:46;;;;;;;;;;;23.90;39.70;;;;;;1517878;78;700;-74
2022/02/24 08:16:48;;;;;;;;;;;23.80;39.50;;;;;;1504444;78;776;-71
2022/02/24 08:18:50;;;;;;;;;;;23.90;39.40;;;;;;1505540;78;748;-73
2022/02/24 08:20:52;;;;;;;;;;;23.80;39.20;;;;;;1516125;78;744;-76
2022/02/24 08:22:53;;;;;;;;;;;23.70;39.50;;;;;;1518057;78;1174;-73
2022/02/24 08:24:55;;;;;;;;;;;23.80;39.60;;;;;;1517461;78;763;-75
2022/02/24 08:26:57;;;;;;;;;;;23.80;39.60;;;;;;1508454;78;721;-77
2022/02/24 08:28:59;;;;;;;;;;;23.70;39.50;;;;;;1499678;78;655;-77
2022/02/24 08:31:01;;;;;;;;;;;23.70;39.60;;;;;;1515853;78;1933;-77
2022/02/24 08:33:03;;;;;;;;;;;23.70;39.50;;;;;;1516155;78;1164;-77
2022/02/24 08:35:06;;;;;;;;;;;23.80;39.50;;;;;;1518334;78;726;-77
2022/02/24 08:37:08;;;;;;;;;;;23.70;39.40;;;;;;1516344;78;795;-75
2022/02/24 08:39:09;;;;;;;;;;;23.70;39.40;;;;;;1515933;77;696;-74
2022/02/24 08:41:11;;;;;;;;;;;23.80;39.30;;;;;;1503674;77;764;-77
2022/02/24 08:43:13;;;;;;;;;;;23.70;39.30;;;;;;1499264;78;1108;-77
2022/02/24 08:45:15;;;;;;;;;;;23.80;39.20;;;;;;1519305;78;682;-76
2022/02/24 08:47:18;;;;;;;;;;;23.80;39.20;;;;;;1511200;77;813;-76
2022/02/24 08:49:20;;;;;;;;;;;23.70;39.20;;;;;;1518348;77;727;-76
2022/02/24 08:51:21;;;;;;;;;;;23.80;39.20;;;;;;1514491;78;1952;-74
2022/02/24 08:53:24;;;;;;;;;;;23.80;39.10;;;;;;1510097;78;1173;-68
2022/02/24 08:55:26;;;;;;;;;;;23.80;39.00;;;;;;1505248;78;769;-65
2022/02/24 08:57:29;;;;;;;;;;;23.80;39.30;;;;;;1518598;78;716;-65
2022/02/24 08:59:30;;;;;;;;;;;23.80;39.40;;;;;;1517598;78;706;-66
2022/02/24 09:01:32;;;;;;;;;;;23.90;39.60;;;;;;1508435;78;809;-66
2022/02/24 09:03:34;;;;;;;;;;;23.90;39.70;;;;;;1503768;78;1157;-67
2022/02/24 09:05:36;;;;;;;;;;;24.00;39.80;;;;;;1506280;78;721;-67
2022/02/24 09:07:38;;;;;;;;;;;24.00;39.70;;;;;;1516420;78;777;-65
2022/02/24 09:09:40;;;;;;;;;;;24.00;39.70;;;;;;1513817;78;714;-64
2022/02/24 09:11:42;;;;;;;;;;;24.00;39.80;;;;;;1522917;78;1938;-64
2022/02/24 09:13:44;;;;;;;;;;;24.10;40.00;;;;;;1511951;78;1186;-66
2022/02/24 09:15:46;;;;;;;;;;;24.10;40.00;;;;;;1516318;78;804;-65
2022/02/24 09:17:48;;;;;;;;;;;24.10;40.10;;;;;;1516243;78;780;-65
2022/02/24 09:19:50;;;;;;;;;;;24.20;40.00;;;;;;1520050;78;803;-65
2022/02/24 09:21:53;;;;;;;;;;;24.20;40.10;;;;;;1512991;78;726;-65
2022/02/24 09:23:55;;;;;;;;;;;24.10;40.10;;;;;;1516613;78;1146;-65
2022/02/24 09:25:57;;;;;;;;;;;24.20;40.10;;;;;;1516474;78;730;-67
2022/02/24 09:27:59;;;;;;;;;;;24.20;40.20;;;;;;1514203;78;726;-65
2022/02/24 09:30:01;;;;;;;;;;;24.20;40.20;;;;;;1516518;78;796;-65
2022/02/24 09:32:03;;;;;;;;;;;24.20;40.30;;;;;;1494149;78;1940;-65
2022/02/24 09:34:05;;;;;;;;;;;24.20;40.30;;;;;;1517320;78;1270;-68
2022/02/24 09:36:07;;;;;;;;;;;24.20;40.40;;;;;;1520294;78;686;-65
2022/02/24 09:38:09;;;;;;;;;;;24.20;40.50;;;;;;1517643;78;812;-66
2022/02/24 09:40:11;;;;;;;;;;;24.30;40.60;;;;;;1523318;77;786;-65
2022/02/24 09:42:13;;;;;;;;;;;24.20;40.50;;;;;;1522437;78;689;-67
2022/02/24 09:44:15;;;;;;;;;;;24.20;40.50;;;;;;1516288;78;1159;-65
2022/02/24 09:46:17;;;;;;;;;;;24.30;40.70;;;;;;1518754;77;732;-65
2022/02/24 09:48:20;;;;;;;;;;;24.20;40.60;;;;;;1519059;78;810;-66
2022/02/24 09:50:27;;;;;;;;;;;24.30;40.80;;;;;;1503436;78;764;-65
2022/02/24 09:52:25;;;;;;;;;;;24.30;40.80;;;;;;1523383;78;1926;-66
2022/02/24 09:54:27;;;;;;;;;;;24.30;40.80;;;;;;1516350;78;1137;-65
2022/02/24 09:56:29;;;;;;;;;;;24.30;40.90;;;;;;1515381;78;813;-66
2022/02/24 09:58:34;;;;;;;;;;;24.30;40.90;;;;;;1517538;78;907;-68
2022/02/24 10:00:37;;;;;;;;;;;24.30;41.00;;;;;;1516320;77;915;-65
2022/02/24 10:02:39;;;;;;;;;;;24.30;41.00;;;;;;1525461;78;848;-66
2022/02/24 10:04:42;;;;;;;;;;;24.30;41.00;;;;;;1512205;78;1154;-68
2022/02/24 10:06:45;;;;;;;;;;;24.30;41.00;;;;;;1509876;78;1484;-64
2022/02/24 10:08:47;;;;;;;;;;;24.20;41.00;;;;;;1516506;78;701;-66
2022/02/24 10:10:49;;;;;;;;;;;24.30;41.10;;;;;;1526810;78;1897;-65
2022/02/24 10:12:53;;;;;;;;;;;24.30;41.20;;;;;;1516292;78;1148;-65
2022/02/24 10:14:55;;;;;;;;;;;24.30;41.20;;;;;;1494087;78;1474;-68
2022/02/24 10:16:59;;;;;;;;;;;24.30;41.30;;;;;;1511073;78;661;-65
2022/02/24 10:19:02;;;;;;;;;;;24.30;41.30;;;;;;1507638;78;922;-65
2022/02/24 10:21:05;;;;;;;;;;;24.30;41.30;;;;;;1514832;78;988;-66
2022/02/24 10:23:07;;;;;;;;;;;24.30;41.30;;;;;;1519316;78;1159;-64
2022/02/24 10:25:15;;;;;;;;;;;24.30;41.40;;;;;;1521139;78;718;-65
2022/02/24 10:27:16;;;;;;;;;;;24.20;41.30;;;;;;1508634;77;1495;-64
2022/02/24 10:29:22;;;;;;;;;;;24.40;41.40;;;;;;1513892;78;685;-67
2022/02/24 10:31:22;;;;;;;;;;;24.40;41.30;;;;;;1521761;77;1961;-65
2022/02/24 10:33:27;;;;;;;;;;;24.40;41.30;;;;;;1502053;78;1150;-67
2022/02/24 10:35:37;;;;;;;;;;;24.30;41.30;;;;;;1524069;78;811;-67
2022/02/24 10:37:36;;;;;;;;;;;24.40;41.40;;;;;;1515958;77;1599;-66
2022/02/24 10:39:38;;;;;;;;;;;24.30;41.30;;;;;;1516314;77;826;-68
2022/02/24 10:41:41;;;;;;;;;;;24.30;41.30;;;;;;1516489;78;1081;-66
2022/02/24 10:43:47;;;;;;;;;;;24.30;41.40;;;;;;1516347;78;1188;-67
2022/02/24 10:45:48;;;;;;;;;;;24.40;41.40;;;;;;1526310;76;1531;-67
2022/02/24 10:47:59;;;;;;;;;;;24.40;41.40;;;;;;1499857;78;1476;-64
2022/02/24 10:50:01;;;;;;;;;;;24.40;41.40;;;;;;1514252;78;654;-66
2022/02/24 10:52:13;;;;;;;;;;;24.40;41.50;;;;;;1516386;78;1949;-66
2022/02/24 10:54:15;;;;;;;;;;;24.30;41.50;;;;;;1503579;78;1138;-66
2022/02/24 10:56:17;;;;;;;;;;;24.30;41.50;;;;;;1510076;78;758;-66
2022/02/24 10:58:19;;;;;;;;;;;24.30;41.50;;;;;;1524406;78;794;-68
2022/02/24 11:00:21;;;;;;;;;;;24.30;41.50;;;;;;1512228;78;793;-65
2022/02/24 11:02:24;;;;;;;;;;;24.30;41.50;;;;;;1507476;78;707;-68
2022/02/24 11:04:26;;;;;;;;;;;24.30;41.50;;;;;;1517655;78;1167;-67
2022/02/24 11:06:29;;;;;;;;;;;24.40;41.60;;;;;;1515983;78;725;-67
2022/02/24 11:08:31;;;;;;;;;;;24.30;41.60;;;;;;1521284;78;804;-65
2022/02/24 11:10:33;;;;;;;;;;;24.30;41.60;;;;;;1521483;78;713;-66
2022/02/24 11:12:35;;;;;;;;;;;24.20;41.50;;;;;;1500705;78;1949;-65
2022/02/24 11:14:39;;;;;;;;;;;24.30;41.50;;;;;;1516919;78;1096;-68
2022/02/24 11:16:41;;;;;;;;;;;24.30;41.70;;;;;;1515978;78;581;-66
2022/02/24 11:18:42;;;;;;;;;;;24.30;41.70;;;;;;1505995;78;775;-66
2022/02/24 11:20:44;;;;;;;;;;;24.30;41.70;;;;;;1520411;78;741;-65
2022/02/24 11:22:47;;;;;;;;;;;24.30;41.70;;;;;;1514244;78;1132;-65
2022/02/24 11:24:49;;;;;;;;;;;24.30;41.70;;;;;;1521323;78;729;-65
2022/02/24 11:26:52;;;;;;;;;;;24.20;41.60;;;;;;1516827;78;730;-65
2022/02/24 11:28:56;;;;;;;;;;;24.30;41.80;;;;;;1520335;78;780;-65
2022/02/24 11:31:00;;;;;;;;;;;24.20;41.70;;;;;;1507017;78;1943;-66
2022/02/24 11:33:02;;;;;;;;;;;24.20;41.70;;;;;;1508177;78;1906;-67
2022/02/24 11:35:07;;;;;;;;;;;24.30;41.80;;;;;;1521711;78;760;-66
2022/02/24 11:37:20;;;;;;;;;;;24.20;41.60;;;;;;1516527;78;728;-65
2022/02/24 11:39:22;;;;;;;;;;;24.20;41.70;;;;;;1518161;77;978;-66
2022/02/24 11:41:23;;;;;;;;;;;24.20;41.70;;;;;;1500678;78;783;-65
2022/02/24 11:43:25;;;;;;;;;;;24.20;41.70;;;;;;1482174;79;1258;-66
2022/02/24 11:45:29;;;;;;;;;;;24.20;41.70;;;;;;1487448;79;1385;-66
2022/02/24 11:47:32;;;;;;;;;;;24.20;41.80;;;;;;1521210;78;705;-66
2022/02/24 11:49:51;;;;;;;;;;;24.20;41.80;;;;;;1483200;79;1163;-66
2022/02/24 11:51:55;;;;;;;;;;;24.20;41.80;;;;;;1504948;78;1929;-65
2022/02/24 11:53:57;;;;;;;;;;;24.20;41.80;;;;;;1482479;78;1701;-66
2022/02/24 11:55:59;;;;;;;;;;;24.10;41.80;;;;;;1505139;78;746;-65
2022/02/24 11:58:02;;;;;;;;;;;24.10;41.80;;;;;;1508258;78;711;-64
2022/02/24 12:00:11;;;;;;;;;;;24.10;41.80;;;;;;1515752;77;1912;-65
2022/02/24 12:02:14;;;;;;;;;;;24.20;41.80;;;;;;1522621;78;765;-68
2022/02/24 12:04:16;;;;;;;;;;;24.10;41.90;;;;;;1519984;78;1085;-68
2022/02/24 12:06:25;;;;;;;;;;;24.20;41.80;;;;;;1507999;78;744;-68
2022/02/24 12:08:27;;;;;;;;;;;24.10;41.80;;;;;;1498967;78;1785;-64